LiveATC.Net - Listen to live air traffic control over the Internet!


ICAO: CYXX  IATA: YXX   Airport: Abbotsford International Airport
City: Abbotsford   State/Province: British Columbia
Country: Canada   Continent: North America
CYXX METAR Weather: CYXX 140600Z 19004KT 15SM SKC 19/14 A2996 RMK SLP145 DENSITY ALT 700FT
CYXX ADS-B Flight Tracking  (ADSBExchange)
CYXX Flight Activity (FlightAware)

CYXX Tower
Feed Status: UP   Listeners: 1
Listen in your browser - HTML5 player (in browser, HTML5)
Click here to listen with your own player (launches your MP3 player)
Archive Access: CYXX Tower
FacilityFrequency
Abbotsford Tower (Inner)119.400
Abbotsford Tower (Outer)121.000
NOTE: Usually monitors Inner Tower but sometimes switches to Outer Tower

NOTICE

Unauthorized use prohibited. See LiveATC.net Terms of Service


Airport/ARTCC Code
Frequency Search
(e.g., 124.400, 128.75)
Site-wide search
 


Browse Feeds
Top 50 Feeds
HF Oceanic Feeds
Coverage Map
Bad Weather Areas

LiveATC FAQ

Increase Coverage

Contact LiveATC.net
Press Inquiries

LiveATC on iPhone
LiveATC on Android

LiveATC Mobile
(Mobile browser)

ATC Audio Archives
Interesting Recordings

LiveATC Forums


Home Page
About LiveATC.net


Terms of Use
Privacy Policy

AIRMETs/SIGMETs

FAA Airport Status
NAS Status
Arrival Demand


Server Software By:
Icecast.org
Liquidsoap